Time;durP1;ratioP1;P1;durP2;ratioP2;P2;SDS_P1;SDS_P2;PMS_P1;PMS_P2;Temp;Humidity;BMP_temperature;BMP_pressure;BME280_temperature;BME280_humidity;BME280_pressure;Samples;Min_cycle;Max_cycle;Signal;HPM_P1;HPM_P2
2023/02/19 00:00:57;;;;;;;7.43;4.57;;;;;;;;;;4985413;28;20022;-47
2023/02/19 00:03:22;;;;;;;6.13;4.40;;;;;;;;;;4985897;28;20331;-52
2023/02/19 00:05:48;;;;;;;5.88;4.32;;;;;;;;;;4985773;28;20041;-53
2023/02/19 00:08:13;;;;;;;6.43;4.72;;;;;;;;;;4986556;28;20041;-55
2023/02/19 00:10:38;;;;;;;7.03;4.90;;;;;;;;;;4986608;28;20042;-49
2023/02/19 00:13:03;;;;;;;6.60;4.82;;;;;;;;;;4985902;28;20042;-58
2023/02/19 00:15:31;;;;;;;6.15;4.30;;;;;;;;;;4984930;28;20030;-47
2023/02/19 00:17:56;;;;;;;6.95;4.97;;;;;;;;;;4983532;28;20887;-54
2023/02/19 00:20:21;;;;;;;8.65;5.13;;;;;;;;;;4985945;28;20034;-48
2023/02/19 00:22:46;;;;;;;8.18;5.18;;;;;;;;;;4985760;28;20080;-48
2023/02/19 00:25:12;;;;;;;6.60;4.90;;;;;;;;;;4986642;28;20150;-53
2023/02/19 00:27:37;;;;;;;6.47;5.15;;;;;;;;;;4988340;28;20554;-51
2023/02/19 00:30:02;;;;;;;5.97;4.80;;;;;;;;;;4985816;28;20030;-49
2023/02/19 00:32:30;;;;;;;8.00;5.82;;;;;;;;;;4985704;28;20088;-54
2023/02/19 00:34:56;;;;;;;9.07;5.07;;;;;;;;;;4982509;28;20027;-50
2023/02/19 00:37:21;;;;;;;7.97;5.28;;;;;;;;;;4988195;28;20041;-49
2023/02/19 00:39:47;;;;;;;8.13;5.20;;;;;;;;;;4982351;28;20052;-54
2023/02/19 00:42:12;;;;;;;7.03;5.22;;;;;;;;;;4985745;28;20134;-50
2023/02/19 00:44:37;;;;;;;10.38;5.95;;;;;;;;;;4984578;28;20034;-51
2023/02/19 00:47:03;;;;;;;7.82;5.22;;;;;;;;;;4983437;28;20089;-51
2023/02/19 00:49:29;;;;;;;7.32;5.53;;;;;;;;;;4985342;28;20030;-53
2023/02/19 00:51:54;;;;;;;7.22;5.43;;;;;;;;;;4967816;28;20033;-56
2023/02/19 00:54:21;;;;;;;9.52;5.68;;;;;;;;;;4982587;28;20356;-49
2023/02/19 00:56:47;;;;;;;8.10;5.60;;;;;;;;;;4984328;28;20034;-51
2023/02/19 00:59:12;;;;;;;7.55;5.65;;;;;;;;;;4983008;28;20084;-46
2023/02/19 01:01:38;;;;;;;7.60;5.78;;;;;;;;;;4985095;28;20041;-48
2023/02/19 01:04:03;;;;;;;7.50;5.65;;;;;;;;;;4983100;28;20033;-54
2023/02/19 01:06:29;;;;;;;7.20;5.57;;;;;;;;;;4986208;28;20026;-52
2023/02/19 01:08:55;;;;;;;7.03;5.15;;;;;;;;;;4985494;28;20044;-49
2023/02/19 01:11:20;;;;;;;7.63;5.40;;;;;;;;;;4985623;28;20586;-51
2023/02/19 01:13:45;;;;;;;6.65;4.95;;;;;;;;;;4977037;28;20104;-52
2023/02/19 01:16:16;;;;;;;7.32;5.40;;;;;;;;;;4990835;28;20034;-53
2023/02/19 01:18:41;;;;;;;7.38;5.38;;;;;;;;;;4984292;28;20034;-53
2023/02/19 01:21:08;;;;;;;8.38;5.70;;;;;;;;;;4982257;28;20474;-47
2023/02/19 01:23:34;;;;;;;7.63;5.87;;;;;;;;;;4984683;28;20038;-55
2023/02/19 01:26:02;;;;;;;9.13;6.18;;;;;;;;;;4981474;28;20031;-51
2023/02/19 01:28:28;;;;;;;8.40;6.45;;;;;;;;;;4983046;28;20114;-55
2023/02/19 01:30:53;;;;;;;8.80;6.30;;;;;;;;;;4984288;28;20125;-51
2023/02/19 01:33:19;;;;;;;8.70;6.80;;;;;;;;;;4985935;28;20034;-50
2023/02/19 01:35:44;;;;;;;9.73;6.20;;;;;;;;;;4986944;28;20136;-51
2023/02/19 01:38:09;;;;;;;7.78;6.22;;;;;;;;;;4983020;28;20030;-46
2023/02/19 01:40:35;;;;;;;8.70;6.32;;;;;;;;;;4986029;28;20045;-46
2023/02/19 01:43:00;;;;;;;9.77;6.38;;;;;;;;;;4983831;28;20018;-54
2023/02/19 01:45:25;;;;;;;9.02;6.68;;;;;;;;;;4986780;28;20116;-52
2023/02/19 01:47:57;;;;;;;10.35;6.20;;;;;;;;;;4984784;28;20119;-49
2023/02/19 01:50:24;;;;;;;7.28;6.13;;;;;;;;;;4983001;28;20062;-50
2023/02/19 01:52:50;;;;;;;7.47;6.10;;;;;;;;;;4969864;28;20034;-53
2023/02/19 01:55:16;;;;;;;8.82;6.85;;;;;;;;;;4986486;28;20128;-56
2023/02/19 01:57:43;;;;;;;9.23;6.60;;;;;;;;;;4990749;28;20077;-46
2023/02/19 02:00:09;;;;;;;8.68;6.70;;;;;;;;;;4996607;28;20463;-52
2023/02/19 02:02:39;;;;;;;8.73;6.93;;;;;;;;;;5003167;28;20045;-45
2023/02/19 02:05:05;;;;;;;;;;;;;;;;;;4989389;28;20026;-48
2023/02/19 02:10:20;;;;;;;9.35;6.80;;;;;;;;;;4987982;28;21931;-47
2023/02/19 02:12:49;;;;;;;10.23;7.03;;;;;;;;;;4988126;28;20043;-48
2023/02/19 02:15:15;;;;;;;10.02;6.85;;;;;;;;;;4987799;28;20023;-44
2023/02/19 02:17:43;;;;;;;10.70;7.47;;;;;;;;;;4989388;28;20044;-54
2023/02/19 02:20:08;;;;;;;15.50;7.22;;;;;;;;;;4986515;28;20032;-54
2023/02/19 02:22:43;;;;;;;11.65;6.97;;;;;;;;;;4988108;28;20030;-46
2023/02/19 02:25:15;;;;;;;9.15;7.32;;;;;;;;;;4987043;28;20034;-48
2023/02/19 02:27:59;;;;;;;9.18;6.63;;;;;;;;;;4981971;28;20489;-52
2023/02/19 02:30:46;;;;;;;9.50;7.32;;;;;;;;;;4986132;28;20049;-52
2023/02/19 02:33:11;;;;;;;9.65;7.03;;;;;;;;;;4985279;28;20070;-49
2023/02/19 02:35:57;;;;;;;8.93;6.47;;;;;;;;;;4986701;28;20466;-53
2023/02/19 02:38:26;;;;;;;9.07;6.93;;;;;;;;;;5000117;28;20034;-46
2023/02/19 02:40:53;;;;;;;12.25;6.90;;;;;;;;;;4985973;28;20434;-46
2023/02/19 02:43:18;;;;;;;9.35;6.95;;;;;;;;;;5002256;28;20117;-47
2023/02/19 02:45:44;;;;;;;8.57;6.63;;;;;;;;;;4985361;28;20433;-53
2023/02/19 02:48:19;;;;;;;8.73;6.35;;;;;;;;;;4986954;28;20472;-49
2023/02/19 02:50:56;;;;;;;9.07;6.82;;;;;;;;;;4969800;28;20035;-49
2023/02/19 02:56:12;;;;;;;9.93;6.50;;;;;;;;;;4985642;28;20169;-48
2023/02/19 02:58:37;;;;;;;8.55;5.97;;;;;;;;;;4987953;28;20053;-48
2023/02/19 03:03:51;;;;;;;;;;;;;;;;;;4986738;28;20336;-50
2023/02/19 03:06:18;;;;;;;8.23;5.77;;;;;;;;;;4988528;28;19921;-54
2023/02/19 03:08:52;;;;;;;9.07;5.93;;;;;;;;;;4986913;28;20280;-48
2023/02/19 03:19:45;;;;;;;;;;;;;;;;;;4988810;28;20034;-56
2023/02/19 03:22:13;;;;;;;8.87;5.83;;;;;;;;;;4985181;28;19913;-51
2023/02/19 03:27:30;;;;;;;6.70;5.10;;;;;;;;;;4983423;28;20585;-56
2023/02/19 03:29:55;;;;;;;;;;;;;;;;;;4984946;28;20043;-51
2023/02/19 03:32:24;;;;;;;7.37;5.20;;;;;;;;;;4985801;28;19928;-56
2023/02/19 03:34:54;;;;;;;7.55;5.45;;;;;;;;;;4984644;28;20756;-48
2023/02/19 03:37:46;;;;;;;6.65;4.80;;;;;;;;;;4984515;28;20030;-53
2023/02/19 03:40:12;;;;;;;6.90;5.07;;;;;;;;;;4995622;28;20054;-46
2023/02/19 03:42:42;;;;;;;8.88;4.60;;;;;;;;;;4986047;28;20107;-52
2023/02/19 03:45:08;;;;;;;6.72;4.88;;;;;;;;;;4983894;28;20479;-47
2023/02/19 03:47:42;;;;;;;5.57;4.20;;;;;;;;;;4985667;28;20396;-51
2023/02/19 03:50:23;;;;;;;6.82;4.47;;;;;;;;;;4985659;28;20034;-54
2023/02/19 03:53:00;;;;;;;5.13;3.72;;;;;;;;;;5001818;28;20029;-53
2023/02/19 03:55:45;;;;;;;4.60;3.33;;;;;;;;;;4994894;28;20068;-46
2023/02/19 03:58:13;;;;;;;6.45;3.00;;;;;;;;;;4978183;28;20424;-46
2023/02/19 04:00:38;;;;;;;5.28;2.97;;;;;;;;;;4984742;28;20038;-46
2023/02/19 04:03:11;;;;;;;3.90;2.90;;;;;;;;;;4968066;28;20057;-47
2023/02/19 04:05:40;;;;;;;4.70;2.53;;;;;;;;;;4985603;28;20035;-53
2023/02/19 04:08:12;;;;;;;3.67;2.50;;;;;;;;;;4983583;28;20538;-49
2023/02/19 04:10:43;;;;;;;3.65;2.53;;;;;;;;;;4987077;28;20100;-51
2023/02/19 04:13:11;;;;;;;4.13;2.47;;;;;;;;;;4986129;28;20159;-46
2023/02/19 04:15:39;;;;;;;2.80;2.17;;;;;;;;;;4985449;28;20038;-45
2023/02/19 04:18:04;;;;;;;;;;;;;;;;;;4983752;28;20022;-51
2023/02/19 04:20:32;;;;;;;2.90;2.10;;;;;;;;;;4984873;28;19910;-51
2023/02/19 04:22:58;;;;;;;2.83;2.00;;;;;;;;;;4981935;28;20271;-55
2023/02/19 04:25:25;;;;;;;2.78;1.98;;;;;;;;;;4986785;28;20080;-47
2023/02/19 04:27:50;;;;;;;3.20;2.40;;;;;;;;;;4986083;28;20029;-49
2023/02/19 04:30:16;;;;;;;4.07;2.05;;;;;;;;;;4985251;28;20042;-47
2023/02/19 04:32:41;;;;;;;3.28;2.10;;;;;;;;;;4977630;28;20066;-45
2023/02/19 04:35:06;;;;;;;2.88;2.10;;;;;;;;;;4982960;28;20458;-48
2023/02/19 04:37:32;;;;;;;3.50;2.40;;;;;;;;;;4984777;28;20034;-55
2023/02/19 04:39:57;;;;;;;3.40;2.47;;;;;;;;;;4985085;28;20034;-47
2023/02/19 04:42:22;;;;;;;3.15;2.22;;;;;;;;;;4984579;28;20036;-56
2023/02/19 04:44:47;;;;;;;3.38;2.28;;;;;;;;;;4983573;28;20391;-50
2023/02/19 04:47:16;;;;;;;3.05;2.33;;;;;;;;;;4983942;28;20037;-52
2023/02/19 04:49:42;;;;;;;3.22;2.38;;;;;;;;;;4983642;28;20034;-50
2023/02/19 04:52:07;;;;;;;4.63;3.03;;;;;;;;;;4983496;28;20034;-54
2023/02/19 04:54:32;;;;;;;3.72;2.40;;;;;;;;;;4983547;28;20054;-52
2023/02/19 04:56:58;;;;;;;3.97;2.63;;;;;;;;;;4984838;28;20096;-49
2023/02/19 04:59:23;;;;;;;2.70;2.17;;;;;;;;;;4983307;28;20030;-51
2023/02/19 05:01:48;;;;;;;3.50;2.50;;;;;;;;;;4985684;28;20038;-53
2023/02/19 05:04:13;;;;;;;3.15;2.38;;;;;;;;;;4983142;28;20574;-48
2023/02/19 05:06:39;;;;;;;4.13;2.50;;;;;;;;;;4988650;28;20045;-52
2023/02/19 05:09:05;;;;;;;3.30;2.38;;;;;;;;;;4985940;28;20137;-49
2023/02/19 05:11:30;;;;;;;3.50;2.30;;;;;;;;;;4985094;28;20042;-48
2023/02/19 05:13:56;;;;;;;3.65;2.47;;;;;;;;;;4986360;28;20064;-45
2023/02/19 05:16:21;;;;;;;6.60;2.95;;;;;;;;;;4984777;28;20113;-51
2023/02/19 05:18:46;;;;;;;3.65;2.50;;;;;;;;;;4986571;28;20820;-49
2023/02/19 05:21:12;;;;;;;3.95;2.47;;;;;;;;;;4986643;28;20438;-47
2023/02/19 05:23:37;;;;;;;4.25;2.40;;;;;;;;;;4984014;28;20035;-49
2023/02/19 05:26:22;;;;;;;4.07;2.80;;;;;;;;;;4985073;28;20109;-49
2023/02/19 05:28:49;;;;;;;4.03;2.38;;;;;;;;;;4985216;28;20490;-55
2023/02/19 05:31:14;;;;;;;4.47;2.47;;;;;;;;;;4983416;28;20519;-45
2023/02/19 05:33:41;;;;;;;3.20;2.25;;;;;;;;;;4986110;28;20038;-51
2023/02/19 05:36:08;;;;;;;3.03;2.15;;;;;;;;;;4984965;28;20031;-49
2023/02/19 05:38:34;;;;;;;3.60;2.60;;;;;;;;;;4985121;28;20172;-50
2023/02/19 05:41:06;;;;;;;4.10;2.33;;;;;;;;;;4988176;28;20129;-50
2023/02/19 05:43:31;;;;;;;4.53;2.58;;;;;;;;;;4987910;28;20801;-46
2023/02/19 05:45:57;;;;;;;3.78;2.28;;;;;;;;;;4986495;28;20026;-50
2023/02/19 05:48:22;;;;;;;3.35;2.50;;;;;;;;;;4986113;28;20037;-49
2023/02/19 05:50:47;;;;;;;3.40;2.40;;;;;;;;;;4990885;28;20037;-45
2023/02/19 05:53:13;;;;;;;3.10;2.10;;;;;;;;;;4989765;28;20467;-47
2023/02/19 05:55:38;;;;;;;2.28;1.90;;;;;;;;;;4988386;28;20072;-49
2023/02/19 05:58:03;;;;;;;3.63;2.10;;;;;;;;;;4988608;28;20022;-49
2023/02/19 06:00:29;;;;;;;2.72;1.85;;;;;;;;;;4987973;28;20498;-55
2023/02/19 06:02:54;;;;;;;2.97;1.98;;;;;;;;;;4985854;28;20029;-49
2023/02/19 06:05:20;;;;;;;3.17;2.00;;;;;;;;;;4988662;28;20031;-54
2023/02/19 06:07:45;;;;;;;2.97;2.00;;;;;;;;;;4988476;28;20457;-45
2023/02/19 06:10:11;;;;;;;3.05;2.05;;;;;;;;;;4985880;28;20046;-51
2023/02/19 06:12:37;;;;;;;4.40;2.00;;;;;;;;;;4974242;28;20069;-53
2023/02/19 06:15:03;;;;;;;2.70;2.00;;;;;;;;;;4987828;28;20081;-48
2023/02/19 06:17:28;;;;;;;3.40;2.10;;;;;;;;;;4987467;28;20035;-50
2023/02/19 06:19:54;;;;;;;2.70;2.00;;;;;;;;;;4987957;28;20026;-54
2023/02/19 06:22:19;;;;;;;2.42;2.00;;;;;;;;;;4987128;28;20554;-50
2023/02/19 06:24:45;;;;;;;2.15;1.77;;;;;;;;;;4986564;28;20037;-48
2023/02/19 06:27:11;;;;;;;3.17;1.92;;;;;;;;;;4989903;28;20113;-52
2023/02/19 06:29:37;;;;;;;2.45;1.90;;;;;;;;;;4988455;28;20117;-55
2023/02/19 06:32:03;;;;;;;3.08;1.98;;;;;;;;;;4985980;28;20038;-45
2023/02/19 06:34:28;;;;;;;2.47;1.90;;;;;;;;;;4984722;28;20039;-50
2023/02/19 06:36:53;;;;;;;3.47;2.17;;;;;;;;;;4985319;28;20177;-50
2023/02/19 06:39:19;;;;;;;3.03;2.13;;;;;;;;;;4986135;28;20022;-48
2023/02/19 06:41:44;;;;;;;3.50;1.80;;;;;;;;;;4986620;28;20092;-46
2023/02/19 06:44:09;;;;;;;2.60;1.98;;;;;;;;;;4985536;28;20379;-52
2023/02/19 06:46:35;;;;;;;3.22;2.30;;;;;;;;;;4984512;28;20076;-48
2023/02/19 06:49:02;;;;;;;2.75;2.05;;;;;;;;;;4985345;28;20411;-51
2023/02/19 06:51:28;;;;;;;2.67;1.92;;;;;;;;;;4987422;28;20093;-53
2023/02/19 06:53:54;;;;;;;3.30;1.90;;;;;;;;;;4987256;28;20042;-52
2023/02/19 06:56:19;;;;;;;2.60;2.00;;;;;;;;;;4985753;28;20613;-48
2023/02/19 06:58:44;;;;;;;2.47;1.92;;;;;;;;;;4988780;28;20042;-45
2023/02/19 07:01:10;;;;;;;3.58;2.50;;;;;;;;;;4987247;28;20038;-55
2023/02/19 07:03:35;;;;;;;4.43;2.50;;;;;;;;;;4984954;28;20034;-47
2023/02/19 07:06:00;;;;;;;3.10;2.13;;;;;;;;;;4983252;28;20574;-50
2023/02/19 07:08:26;;;;;;;2.55;1.88;;;;;;;;;;4987134;28;20114;-55
2023/02/19 07:10:55;;;;;;;3.28;2.33;;;;;;;;;;4985431;28;20030;-51
2023/02/19 07:13:20;;;;;;;4.15;2.17;;;;;;;;;;4986907;28;20037;-49
2023/02/19 07:15:46;;;;;;;3.30;2.30;;;;;;;;;;4986848;28;20439;-48
2023/02/19 07:18:11;;;;;;;3.30;2.30;;;;;;;;;;4988395;28;20455;-48
2023/02/19 07:20:36;;;;;;;5.90;2.30;;;;;;;;;;4986848;28;20460;-55
2023/02/19 07:23:02;;;;;;;3.13;2.28;;;;;;;;;;4986338;28;20377;-47
2023/02/19 07:25:27;;;;;;;4.22;2.58;;;;;;;;;;4985871;28;20334;-47
2023/02/19 07:27:52;;;;;;;4.15;2.15;;;;;;;;;;4985772;28;20073;-48
2023/02/19 07:30:18;;;;;;;3.03;2.30;;;;;;;;;;4987905;28;20041;-49
2023/02/19 07:32:44;;;;;;;5.10;2.60;;;;;;;;;;4984386;28;20030;-50
2023/02/19 07:35:09;;;;;;;3.70;2.60;;;;;;;;;;4984729;28;20041;-48
2023/02/19 07:37:35;;;;;;;4.00;2.67;;;;;;;;;;4986334;28;20034;-51
2023/02/19 07:40:00;;;;;;;4.05;2.70;;;;;;;;;;4987907;28;20768;-45
2023/02/19 07:42:25;;;;;;;4.75;2.65;;;;;;;;;;4985008;28;20463;-54
2023/02/19 07:44:51;;;;;;;3.60;2.50;;;;;;;;;;4984217;28;20058;-55
2023/02/19 07:47:16;;;;;;;4.28;3.00;;;;;;;;;;4987702;28;20032;-52
2023/02/19 07:49:41;;;;;;;5.60;2.85;;;;;;;;;;4986032;28;20034;-48
2023/02/19 07:52:06;;;;;;;3.47;2.22;;;;;;;;;;4985165;28;20049;-47
2023/02/19 07:54:32;;;;;;;3.97;2.55;;;;;;;;;;4983260;28;20487;-49
2023/02/19 07:56:58;;;;;;;5.15;2.80;;;;;;;;;;4987163;28;20030;-47
2023/02/19 07:59:23;;;;;;;4.35;2.88;;;;;;;;;;4986841;28;20030;-50
2023/02/19 08:04:32;;;;;;;4.28;2.70;;;;;;;;;;4980623;28;20444;-57
2023/02/19 08:06:57;;;;;;;3.97;2.60;;;;;;;;;;4982533;28;20380;-52
2023/02/19 08:09:23;;;;;;;4.15;2.80;;;;;;;;;;4980297;28;20027;-55
2023/02/19 08:14:32;;;;;;;4.05;2.30;;;;;;;;;;4985741;28;20484;-50
2023/02/19 08:16:58;;;;;;;3.97;2.90;;;;;;;;;;4987568;28;20041;-55
2023/02/19 08:19:23;;;;;;;4.05;2.70;;;;;;;;;;4986519;28;20022;-46
2023/02/19 08:21:49;;;;;;;4.40;3.13;;;;;;;;;;4987053;28;20068;-47
2023/02/19 08:24:15;;;;;;;4.65;2.80;;;;;;;;;;4986649;28;20506;-51
2023/02/19 08:26:40;;;;;;;4.43;2.75;;;;;;;;;;5002456;28;20042;-55
2023/02/19 08:29:05;;;;;;;3.80;2.75;;;;;;;;;;4986490;28;20038;-50
2023/02/19 08:31:31;;;;;;;4.13;3.00;;;;;;;;;;4986274;28;20038;-51
2023/02/19 08:33:57;;;;;;;4.20;2.47;;;;;;;;;;4985510;28;20472;-56
2023/02/19 08:36:22;;;;;;;5.22;2.33;;;;;;;;;;4984485;28;20073;-50
2023/02/19 08:38:47;;;;;;;5.20;2.72;;;;;;;;;;4985105;28;20069;-49
2023/02/19 08:41:13;;;;;;;3.30;2.30;;;;;;;;;;4986107;28;20053;-49
2023/02/19 08:43:39;;;;;;;7.10;2.90;;;;;;;;;;4986847;28;20451;-53
2023/02/19 08:46:05;;;;;;;4.70;2.65;;;;;;;;;;4986080;28;20034;-52
2023/02/19 08:48:31;;;;;;;3.50;2.40;;;;;;;;;;4987340;28;20026;-50
2023/02/19 08:50:58;;;;;;;4.45;2.70;;;;;;;;;;4985461;28;20034;-49
2023/02/19 08:53:24;;;;;;;4.45;2.50;;;;;;;;;;4985899;28;20031;-53
2023/02/19 08:55:49;;;;;;;4.75;2.65;;;;;;;;;;4984541;28;20031;-49
2023/02/19 08:58:15;;;;;;;3.53;2.40;;;;;;;;;;4986027;28;20038;-49
2023/02/19 09:00:40;;;;;;;3.70;2.28;;;;;;;;;;4984225;28;20046;-53
2023/02/19 09:03:05;;;;;;;4.88;2.25;;;;;;;;;;4985863;28;20023;-54
2023/02/19 09:05:30;;;;;;;3.25;2.20;;;;;;;;;;4984702;28;20399;-53
2023/02/19 09:07:56;;;;;;;5.20;2.42;;;;;;;;;;4986312;28;20043;-53
2023/02/19 09:10:21;;;;;;;3.53;2.20;;;;;;;;;;4987827;28;20042;-51
2023/02/19 09:12:47;;;;;;;3.35;2.05;;;;;;;;;;4989268;28;20040;-50
2023/02/19 09:15:12;;;;;;;4.30;2.65;;;;;;;;;;4988881;28;20077;-54
2023/02/19 09:17:37;;;;;;;6.05;2.25;;;;;;;;;;4990733;28;20391;-52
2023/02/19 09:20:03;;;;;;;4.00;2.20;;;;;;;;;;4990705;28;20045;-50
2023/02/19 09:22:28;;;;;;;4.75;2.40;;;;;;;;;;4987691;28;20073;-49
2023/02/19 09:24:53;;;;;;;5.25;3.05;;;;;;;;;;4987033;28;20581;-51
2023/02/19 09:27:19;;;;;;;4.13;2.40;;;;;;;;;;4989353;28;20018;-48
2023/02/19 09:29:44;;;;;;;3.63;2.50;;;;;;;;;;4989959;28;20086;-49
2023/02/19 09:32:10;;;;;;;4.70;2.75;;;;;;;;;;4988431;28;20039;-51
2023/02/19 09:34:35;;;;;;;4.03;2.33;;;;;;;;;;4987961;28;20022;-54
2023/02/19 09:37:00;;;;;;;6.25;2.30;;;;;;;;;;4988410;28;20069;-53
2023/02/19 09:39:26;;;;;;;4.85;2.80;;;;;;;;;;4990356;28;20026;-52
2023/02/19 09:41:53;;;;;;;4.45;2.67;;;;;;;;;;4989436;28;20116;-46
2023/02/19 09:44:27;;;;;;;3.53;2.45;;;;;;;;;;4989276;28;20053;-47
2023/02/19 09:46:54;;;;;;;6.88;2.90;;;;;;;;;;4991647;28;20041;-51
2023/02/19 09:49:22;;;;;;;7.60;3.10;;;;;;;;;;4985721;28;20043;-50
2023/02/19 09:51:51;;;;;;;5.72;2.75;;;;;;;;;;4989062;28;21078;-55
2023/02/19 09:54:21;;;;;;;8.35;3.00;;;;;;;;;;4987155;28;20030;-53
2023/02/19 09:56:46;;;;;;;6.40;3.08;;;;;;;;;;4987851;28;20062;-50
2023/02/19 09:59:23;;;;;;;5.53;2.42;;;;;;;;;;4987463;28;20126;-46
2023/02/19 10:01:54;;;;;;;5.13;2.50;;;;;;;;;;4985958;28;20029;-53
2023/02/19 10:04:19;;;;;;;7.03;2.70;;;;;;;;;;4987709;28;20526;-53
2023/02/19 10:06:45;;;;;;;7.07;2.75;;;;;;;;;;4986560;28;20034;-52
2023/02/19 10:09:17;;;;;;;4.75;2.50;;;;;;;;;;4985589;28;20022;-54
2023/02/19 10:11:42;;;;;;;7.03;2.65;;;;;;;;;;4988395;28;20093;-55
2023/02/19 10:14:13;;;;;;;6.25;2.45;;;;;;;;;;4980271;28;20026;-52
2023/02/19 10:16:39;;;;;;;2.80;1.92;;;;;;;;;;4986382;28;20557;-51
2023/02/19 10:19:08;;;;;;;6.03;2.70;;;;;;;;;;4987609;28;20121;-50
2023/02/19 10:21:34;;;;;;;5.57;2.60;;;;;;;;;;4988074;28;20034;-52
2023/02/19 10:24:01;;;;;;;5.95;2.83;;;;;;;;;;4987263;28;20034;-49
2023/02/19 10:26:36;;;;;;;7.10;2.60;;;;;;;;;;4972887;28;20038;-55
2023/02/19 10:29:02;;;;;;;6.18;2.75;;;;;;;;;;4986558;28;21040;-55
2023/02/19 10:31:29;;;;;;;4.22;2.10;;;;;;;;;;4986169;28;20130;-55
2023/02/19 10:33:56;;;;;;;5.28;2.30;;;;;;;;;;4986781;28;20040;-49
2023/02/19 10:36:32;;;;;;;5.40;2.28;;;;;;;;;;4988226;28;20026;-48
2023/02/19 10:38:58;;;;;;;4.63;2.60;;;;;;;;;;4987096;28;20096;-49
2023/02/19 10:41:25;;;;;;;5.75;2.17;;;;;;;;;;4987354;28;20071;-50
2023/02/19 10:43:52;;;;;;;5.22;2.70;;;;;;;;;;4985038;28;20041;-52
2023/02/19 10:46:20;;;;;;;6.45;2.50;;;;;;;;;;4985600;28;20029;-54
2023/02/19 10:48:57;;;;;;;4.43;2.17;;;;;;;;;;4985888;28;20431;-49
2023/02/19 10:51:33;;;;;;;4.95;2.20;;;;;;;;;;4988931;28;20611;-49
2023/02/19 10:54:07;;;;;;;5.05;2.30;;;;;;;;;;4984911;28;20042;-51
2023/02/19 10:56:33;;;;;;;5.63;2.10;;;;;;;;;;4982305;28;20451;-47
2023/02/19 10:59:17;;;;;;;16.25;2.33;;;;;;;;;;4987642;28;20042;-51
2023/02/19 11:01:52;;;;;;;3.45;2.10;;;;;;;;;;4984620;28;20031;-50
2023/02/19 11:04:18;;;;;;;5.05;2.28;;;;;;;;;;4983350;28;20077;-49
2023/02/19 11:06:44;;;;;;;5.85;2.17;;;;;;;;;;4983858;28;20031;-48
2023/02/19 11:09:22;;;;;;;5.70;2.50;;;;;;;;;;4983607;28;20054;-48
2023/02/19 11:11:50;;;;;;;3.88;2.20;;;;;;;;;;4986045;28;20033;-52
2023/02/19 11:14:17;;;;;;;4.50;3.03;;;;;;;;;;4998258;28;20018;-52
2023/02/19 11:16:43;;;;;;;5.95;2.40;;;;;;;;;;4985091;28;20137;-55
2023/02/19 11:19:28;;;;;;;3.65;2.30;;;;;;;;;;4966345;28;20122;-57
2023/02/19 11:21:54;;;;;;;5.25;2.42;;;;;;;;;;4971575;28;20077;-56
2023/02/19 11:24:22;;;;;;;4.82;2.47;;;;;;;;;;4981063;28;20113;-55
2023/02/19 11:26:47;;;;;;;4.45;2.05;;;;;;;;;;4980930;28;20491;-60
2023/02/19 11:29:24;;;;;;;7.40;2.60;;;;;;;;;;4983408;28;20038;-49
2023/02/19 11:31:53;;;;;;;8.10;2.63;;;;;;;;;;4981235;28;20042;-51
2023/02/19 11:34:24;;;;;;;7.82;2.88;;;;;;;;;;4985617;28;20026;-50
2023/02/19 11:37:07;;;;;;;4.88;2.00;;;;;;;;;;4968573;28;20061;-50
2023/02/19 11:39:32;;;;;;;7.07;2.83;;;;;;;;;;4969567;28;20023;-49
2023/02/19 11:42:10;;;;;;;6.28;2.50;;;;;;;;;;4960334;28;20112;-54
2023/02/19 11:44:48;;;;;;;2.78;1.92;;;;;;;;;;4975236;28;20409;-54
2023/02/19 11:47:32;;;;;;;3.17;1.70;;;;;;;;;;4978678;28;20343;-58
2023/02/19 11:50:15;;;;;;;3.63;1.83;;;;;;;;;;4982637;28;20027;-56
2023/02/19 11:52:43;;;;;;;4.97;1.80;;;;;;;;;;4979672;28;20039;-50
2023/02/19 11:55:08;;;;;;;;;;;;;;;;;;4981862;28;20104;-51
2023/02/19 11:57:37;;;;;;;2.85;1.88;;;;;;;;;;4979904;28;19917;-56
2023/02/19 12:00:08;;;;;;;5.18;1.83;;;;;;;;;;4976278;28;20043;-49
2023/02/19 12:02:45;;;;;;;4.25;2.00;;;;;;;;;;4981404;28;20042;-54
2023/02/19 12:05:17;;;;;;;5.93;2.72;;;;;;;;;;4975851;28;20038;-51
2023/02/19 12:07:49;;;;;;;2.90;2.00;;;;;;;;;;4978522;28;20076;-51
2023/02/19 12:10:33;;;;;;;5.07;2.28;;;;;;;;;;4982937;28;20034;-52
2023/02/19 12:12:58;;;;;;;5.32;2.25;;;;;;;;;;4973804;28;20030;-56
2023/02/19 12:15:31;;;;;;;6.10;2.50;;;;;;;;;;4978190;28;20026;-52
2023/02/19 12:18:06;;;;;;;8.10;3.15;;;;;;;;;;4979403;28;20479;-50
2023/02/19 12:20:34;;;;;;;5.05;2.70;;;;;;;;;;4970280;28;20233;-46
2023/02/19 12:23:11;;;;;;;5.45;2.78;;;;;;;;;;4978428;28;20394;-49
2023/02/19 12:25:42;;;;;;;6.47;2.40;;;;;;;;;;4980421;28;20502;-55
2023/02/19 12:28:17;;;;;;;4.35;2.10;;;;;;;;;;4976798;28;20475;-52
2023/02/19 12:31:07;;;;;;;5.85;2.42;;;;;;;;;;4983050;28;20042;-55
2023/02/19 12:33:49;;;;;;;5.35;2.67;;;;;;;;;;4947394;28;20042;-50
2023/02/19 12:36:20;;;;;;;3.35;2.28;;;;;;;;;;4978757;28;20034;-52
2023/02/19 12:39:15;;;;;;;4.50;2.47;;;;;;;;;;4994200;28;20030;-51
2023/02/19 12:41:48;;;;;;;3.42;2.40;;;;;;;;;;4974006;28;20579;-47
2023/02/19 12:44:35;;;;;;;5.65;2.47;;;;;;;;;;4980355;28;20041;-51
2023/02/19 12:47:02;;;;;;;3.63;2.10;;;;;;;;;;4982310;28;20038;-55
2023/02/19 12:49:33;;;;;;;5.87;2.20;;;;;;;;;;4976001;28;20030;-53
2023/02/19 12:52:01;;;;;;;4.75;1.90;;;;;;;;;;4977008;28;20578;-49
2023/02/19 12:54:29;;;;;;;5.22;2.20;;;;;;;;;;4986061;28;20029;-54
2023/02/19 12:57:16;;;;;;;6.13;2.10;;;;;;;;;;4978494;28;20026;-48
2023/02/19 12:59:41;;;;;;;6.75;2.55;;;;;;;;;;4989382;28;20046;-56
2023/02/19 13:02:10;;;;;;;4.15;2.10;;;;;;;;;;4984588;28;20034;-52
2023/02/19 13:04:41;;;;;;;6.22;2.25;;;;;;;;;;4977923;28;20499;-54
2023/02/19 13:07:15;;;;;;;7.35;2.65;;;;;;;;;;4984376;28;20117;-53
2023/02/19 13:09:43;;;;;;;6.00;2.50;;;;;;;;;;4977474;28;20033;-54
2023/02/19 13:12:12;;;;;;;4.43;2.30;;;;;;;;;;4979301;28;20038;-54
2023/02/19 13:14:40;;;;;;;6.35;2.90;;;;;;;;;;4984725;28;20744;-50
2023/02/19 13:17:24;;;;;;;6.32;2.28;;;;;;;;;;4980580;28;20026;-56
2023/02/19 13:19:55;;;;;;;5.18;2.55;;;;;;;;;;4986632;28;20553;-56
2023/02/19 13:25:05;;;;;;;6.38;2.70;;;;;;;;;;4983789;28;20034;-52
2023/02/19 13:27:37;;;;;;;6.53;2.58;;;;;;;;;;4984699;28;20033;-50
2023/02/19 13:30:20;;;;;;;7.75;2.80;;;;;;;;;;4986361;28;20033;-52
2023/02/19 13:32:54;;;;;;;6.05;2.60;;;;;;;;;;4987569;28;20669;-52
2023/02/19 13:35:38;;;;;;;7.13;2.65;;;;;;;;;;4987474;28;20045;-49
2023/02/19 13:38:03;;;;;;;3.80;2.13;;;;;;;;;;4987590;28;20073;-52
2023/02/19 13:40:31;;;;;;;4.40;2.00;;;;;;;;;;4985666;28;20039;-49
2023/02/19 13:42:58;;;;;;;6.07;2.80;;;;;;;;;;4988960;28;20066;-53
2023/02/19 13:45:32;;;;;;;5.07;2.60;;;;;;;;;;4989395;28;20080;-56
2023/02/19 13:48:00;;;;;;;5.45;2.45;;;;;;;;;;4985629;28;20149;-50
2023/02/19 13:50:30;;;;;;;3.33;2.30;;;;;;;;;;4986290;28;20069;-51
2023/02/19 13:52:59;;;;;;;9.82;2.67;;;;;;;;;;5000331;28;20391;-47
2023/02/19 13:55:45;;;;;;;5.32;2.20;;;;;;;;;;4988147;28;20101;-52
2023/02/19 13:58:29;;;;;;;7.18;2.55;;;;;;;;;;4984315;28;20121;-56
2023/02/19 14:00:54;;;;;;;6.07;2.80;;;;;;;;;;4979146;28;20475;-55
2023/02/19 14:03:27;;;;;;;7.63;2.78;;;;;;;;;;4985446;28;20019;-61
2023/02/19 14:05:56;;;;;;;6.93;2.63;;;;;;;;;;4988334;28;20035;-53
2023/02/19 14:08:47;;;;;;;4.53;2.65;;;;;;;;;;5003677;28;20037;-50
2023/02/19 14:11:13;;;;;;;12.80;2.95;;;;;;;;;;4983103;28;20047;-49
2023/02/19 14:13:48;;;;;;;5.50;2.22;;;;;;;;;;4987637;28;20091;-56
2023/02/19 14:16:32;;;;;;;3.78;1.90;;;;;;;;;;4990683;28;20038;-52
2023/02/19 14:18:57;;;;;;;3.50;1.92;;;;;;;;;;4988823;28;20038;-53
2023/02/19 14:21:27;;;;;;;5.85;2.35;;;;;;;;;;4987654;28;20337;-50
2023/02/19 14:23:54;;;;;;;4.50;2.22;;;;;;;;;;4984259;28;20534;-49
2023/02/19 14:26:19;;;;;;;;;;;;;;;;;;4988938;28;20042;-51
2023/02/19 14:28:46;;;;;;;8.33;2.50;;;;;;;;;;4999360;28;19909;-54
2023/02/19 14:31:14;;;;;;;4.82;2.15;;;;;;;;;;4989313;28;20092;-53
2023/02/19 14:33:43;;;;;;;6.10;2.60;;;;;;;;;;4988030;28;20038;-55
2023/02/19 14:36:24;;;;;;;8.55;2.50;;;;;;;;;;4973441;28;20511;-52
2023/02/19 14:38:49;;;;;;;5.47;2.30;;;;;;;;;;4986128;28;20034;-46
2023/02/19 14:41:15;;;;;;;4.57;2.42;;;;;;;;;;4983594;28;20039;-50
2023/02/19 14:43:40;;;;;;;5.47;2.30;;;;;;;;;;4980576;28;20269;-52
2023/02/19 14:46:08;;;;;;;8.45;2.75;;;;;;;;;;4966537;28;20472;-56
2023/02/19 14:48:37;;;;;;;5.90;2.90;;;;;;;;;;4982004;28;20423;-51
2023/02/19 14:51:06;;;;;;;6.10;2.60;;;;;;;;;;4964876;28;20070;-52
2023/02/19 14:53:34;;;;;;;6.63;2.45;;;;;;;;;;4964477;28;20031;-56
2023/02/19 14:55:59;;;;;;;7.45;2.47;;;;;;;;;;4966442;28;20031;-49
2023/02/19 14:58:30;;;;;;;7.05;2.50;;;;;;;;;;4966578;28;20018;-50
2023/02/19 15:00:55;;;;;;;9.15;2.70;;;;;;;;;;4977624;28;20431;-52
2023/02/19 15:03:27;;;;;;;7.15;3.10;;;;;;;;;;4966071;28;20481;-55
2023/02/19 15:05:58;;;;;;;9.77;2.90;;;;;;;;;;4966779;28;20027;-54
2023/02/19 15:08:26;;;;;;;12.48;3.08;;;;;;;;;;4966282;28;20015;-53
2023/02/19 15:10:52;;;;;;;5.22;2.30;;;;;;;;;;4966543;28;20061;-50
2023/02/19 15:13:20;;;;;;;9.50;2.30;;;;;;;;;;4969276;28;20551;-50
2023/02/19 15:15:45;;;;;;;5.50;2.22;;;;;;;;;;4964162;28;20041;-53
2023/02/19 15:18:16;;;;;;;4.57;2.10;;;;;;;;;;4964526;28;20027;-54
2023/02/19 15:20:42;;;;;;;5.18;2.25;;;;;;;;;;4966248;28;20074;-49